Time;durP1;ratioP1;P1;durP2;ratioP2;P2;SDS_P1;SDS_P2;PMS_P1;PMS_P2;Temp;Humidity;BMP_temperature;BMP_pressure;BME280_temperature;BME280_humidity;BME280_pressure;Samples;Min_cycle;Max_cycle;Signal;HPM_P1;HPM_P2
2022/12/13 00:01:38;;;;;;;23.77;13.00;;;-4.60;99.90;;;;;;5053648;28;20455;-42
2022/12/13 00:04:06;;;;;;;24.50;13.80;;;-4.70;99.90;;;;;;5053877;28;20444;-43
2022/12/13 00:06:33;;;;;;;26.57;14.17;;;-4.70;99.90;;;;;;5053852;28;20228;-42
2022/12/13 00:09:00;;;;;;;27.70;14.70;;;-4.60;99.90;;;;;;5054192;28;20459;-42
2022/12/13 00:11:26;;;;;;;29.83;15.87;;;-4.60;99.90;;;;;;5053448;28;20491;-42
2022/12/13 00:13:52;;;;;;;28.37;14.13;;;-4.60;99.90;;;;;;5035914;28;20805;-40
2022/12/13 00:16:23;;;;;;;26.23;14.13;;;-4.50;99.90;;;;;;5035693;28;20507;-41
2022/12/13 00:18:54;;;;;;;29.80;14.93;;;-4.50;99.90;;;;;;5035871;28;20450;-43
2022/12/13 00:21:22;;;;;;;26.67;14.53;;;-4.40;99.90;;;;;;5035601;28;20466;-42
2022/12/13 00:23:48;;;;;;;26.73;13.73;;;-4.50;99.90;;;;;;5053807;28;20441;-41
2022/12/13 00:26:19;;;;;;;32.47;15.10;;;-4.50;99.90;;;;;;5054175;28;20445;-40
2022/12/13 00:28:48;;;;;;;26.97;14.63;;;-4.40;99.90;;;;;;5035523;28;20207;-40
2022/12/13 00:31:14;;;;;;;31.60;15.07;;;-4.40;99.90;;;;;;5035952;28;20423;-42
2022/12/13 00:33:40;;;;;;;30.70;15.87;;;-4.40;99.90;;;;;;5054949;28;20783;-42
2022/12/13 00:36:06;;;;;;;29.07;14.33;;;-4.30;99.90;;;;;;5036858;28;20506;-42
2022/12/13 00:38:33;;;;;;;30.37;14.70;;;-4.30;99.90;;;;;;5057696;28;20604;-43
2022/12/13 00:40:59;;;;;;;28.40;14.53;;;-4.30;99.90;;;;;;5036094;28;20470;-40
2022/12/13 00:43:24;;;;;;;28.20;14.57;;;-4.30;99.90;;;;;;5054077;28;20420;-40
2022/12/13 00:45:50;;;;;;;30.67;14.70;;;-4.20;99.90;;;;;;5035748;28;20261;-39
2022/12/13 00:48:16;;;;;;;34.00;15.87;;;-4.20;99.90;;;;;;5053702;28;20186;-41
2022/12/13 00:50:41;;;;;;;29.07;15.23;;;-4.20;99.90;;;;;;5035345;28;20206;-41
2022/12/13 00:53:08;;;;;;;32.53;15.67;;;-4.20;99.90;;;;;;5053538;28;20266;-40
2022/12/13 00:55:38;;;;;;;30.93;15.00;;;-4.20;99.90;;;;;;5053310;28;20185;-41
2022/12/13 00:58:04;;;;;;;24.40;13.83;;;-4.20;99.90;;;;;;5057597;28;20391;-43
2022/12/13 01:00:30;;;;;;;28.07;15.27;;;-4.30;99.90;;;;;;5039212;28;20427;-43
2022/12/13 01:02:55;;;;;;;33.80;15.13;;;-4.40;99.90;;;;;;5057014;28;20184;-41
2022/12/13 01:05:21;;;;;;;33.03;15.40;;;-4.50;99.90;;;;;;5039409;28;20188;-43
2022/12/13 01:07:47;;;;;;;28.17;14.77;;;-4.50;99.90;;;;;;5039576;28;20184;-41
2022/12/13 01:10:12;;;;;;;26.93;14.17;;;-4.50;99.90;;;;;;5057628;28;20215;-42
2022/12/13 01:12:38;;;;;;;28.87;15.17;;;-4.50;99.90;;;;;;5057245;28;20257;-42
2022/12/13 01:15:05;;;;;;;31.77;15.00;;;-4.50;99.90;;;;;;5039652;28;20182;-42
2022/12/13 01:17:30;;;;;;;28.23;14.93;;;-4.50;99.90;;;;;;5040745;28;20183;-42
2022/12/13 01:19:56;;;;;;;27.90;14.90;;;-4.40;99.90;;;;;;5058466;28;20522;-42
2022/12/13 01:22:22;;;;;;;26.40;14.40;;;-4.50;99.90;;;;;;5039560;28;20181;-43
2022/12/13 01:24:47;;;;;;;30.70;15.63;;;-4.50;99.90;;;;;;5057822;28;20325;-42
2022/12/13 01:27:13;;;;;;;27.47;14.60;;;-4.50;99.90;;;;;;5057207;28;20740;-43
2022/12/13 01:29:39;;;;;;;25.03;14.27;;;-4.50;99.90;;;;;;5057518;28;20684;-40
2022/12/13 01:32:04;;;;;;;29.73;15.03;;;-4.50;99.90;;;;;;5057471;28;20528;-41
2022/12/13 01:34:30;;;;;;;30.30;15.87;;;-4.40;99.90;;;;;;5056928;28;20176;-41
2022/12/13 01:36:56;;;;;;;30.37;15.23;;;-4.40;99.90;;;;;;5057422;28;20176;-41
2022/12/13 01:39:22;;;;;;;28.00;14.43;;;-4.40;99.90;;;;;;5039784;28;20199;-40
2022/12/13 01:41:51;;;;;;;27.20;15.17;;;-4.30;99.90;;;;;;5040049;28;20423;-42
2022/12/13 01:44:54;;;;;;;31.33;15.67;;;-4.30;99.90;;;;;;5039403;28;20281;-43
2022/12/13 01:47:43;;;;;;;29.23;16.03;;;-4.30;99.90;;;;;;5058154;28;20427;-40
2022/12/13 01:50:16;;;;;;;27.30;14.67;;;-4.40;99.90;;;;;;5066670;28;20462;-42
2022/12/13 01:52:43;;;;;;;28.37;14.37;;;-4.30;99.90;;;;;;5060135;28;20410;-43
2022/12/13 01:55:10;;;;;;;33.10;15.57;;;-4.30;99.90;;;;;;5038886;28;20759;-42
2022/12/13 01:57:39;;;;;;;34.63;16.10;;;-4.30;99.90;;;;;;5056717;28;20426;-44
2022/12/13 02:00:06;;;;;;;31.40;15.37;;;-4.30;99.90;;;;;;5056299;28;20446;-40
2022/12/13 02:02:32;;;;;;;30.97;16.83;;;-4.30;99.90;;;;;;5056297;28;20752;-42
2022/12/13 02:05:17;;;;;;;30.37;16.97;;;-4.30;99.90;;;;;;5056468;28;20494;-42
2022/12/13 02:07:44;;;;;;;33.40;15.97;;;-4.30;99.90;;;;;;5055382;28;20555;-41
2022/12/13 02:10:10;;;;;;;34.33;17.83;;;-4.30;99.90;;;;;;5055803;28;20459;-41
2022/12/13 02:12:38;;;;;;;31.67;15.83;;;-4.30;99.90;;;;;;5039053;28;20419;-43
2022/12/13 02:15:10;;;;;;;31.03;16.20;;;-4.30;99.90;;;;;;5056230;28;20474;-42
2022/12/13 02:17:38;;;;;;;30.13;16.00;;;-4.40;99.90;;;;;;5038151;28;20473;-44
2022/12/13 02:20:13;;;;;;;33.60;16.40;;;-4.40;99.90;;;;;;5055981;28;20482;-42
2022/12/13 02:22:53;;;;;;;29.60;15.90;;;-4.40;99.90;;;;;;5055751;28;20962;-42
2022/12/13 02:25:58;;;;;;;33.73;16.77;;;-4.50;99.90;;;;;;5055771;28;20519;-42
2022/12/13 02:29:01;;;;;;;32.30;16.60;;;-4.50;99.90;;;;;;5055576;28;20436;-44
2022/12/13 02:31:47;;;;;;;32.40;16.63;;;-4.60;99.90;;;;;;5038114;28;20580;-40
2022/12/13 02:34:39;;;;;;;31.83;16.23;;;-4.60;99.90;;;;;;5055177;28;20429;-42
2022/12/13 02:37:17;;;;;;;32.33;16.73;;;-4.60;99.90;;;;;;5027362;28;20441;-43
2022/12/13 02:39:50;;;;;;;35.87;16.73;;;-4.60;99.90;;;;;;5055819;28;20482;-41
2022/12/13 02:42:25;;;;;;;32.20;17.30;;;-4.60;99.90;;;;;;5055261;28;20395;-41
2022/12/13 02:45:17;;;;;;;29.17;17.47;;;-4.60;99.90;;;;;;5055671;28;20397;-43
2022/12/13 02:47:43;;;;;;;33.73;17.87;;;-4.50;99.90;;;;;;5055870;28;20490;-40
2022/12/13 02:50:11;;;;;;;37.93;18.13;;;-4.50;99.90;;;;;;5055788;28;20466;-45
2022/12/13 02:52:41;;;;;;;39.63;17.93;;;-4.50;99.90;;;;;;5056612;28;20507;-40
2022/12/13 02:55:10;;;;;;;38.27;17.97;;;-4.40;99.90;;;;;;5055921;28;20399;-40
2022/12/13 02:57:40;;;;;;;40.23;19.57;;;-4.40;99.90;;;;;;5054854;28;20411;-43
2022/12/13 03:00:06;;;;;;;37.73;19.13;;;-4.40;99.90;;;;;;5037300;28;20452;-43
2022/12/13 03:02:47;;;;;;;32.50;17.77;;;-4.40;99.90;;;;;;5054948;28;20425;-44
2022/12/13 03:08:09;;;;;;;34.43;18.80;;;-4.40;99.90;;;;;;5055167;28;20479;-40
2022/12/13 03:10:54;;;;;;;39.27;19.30;;;-4.40;99.90;;;;;;5036899;28;20459;-43
2022/12/13 03:13:43;;;;;;;36.90;17.33;;;-4.30;99.90;;;;;;5054718;28;20501;-44
2022/12/13 03:16:27;;;;;;;38.20;19.60;;;-4.30;99.90;;;;;;5037124;28;20439;-43
2022/12/13 03:18:57;;;;;;;44.23;20.57;;;-4.30;99.90;;;;;;5053889;28;20431;-42
2022/12/13 03:21:23;;;;;;;41.93;19.83;;;-4.20;99.90;;;;;;5055706;28;20539;-43
2022/12/13 03:23:49;;;;;;;39.17;20.07;;;-4.20;99.90;;;;;;5054646;28;20532;-42
2022/12/13 03:26:22;;;;;;;39.80;19.73;;;-4.20;99.90;;;;;;5036840;28;20485;-43
2022/12/13 03:28:48;;;;;;;36.73;19.20;;;-4.20;99.90;;;;;;5036567;28;20197;-42
2022/12/13 03:31:14;;;;;;;42.03;21.47;;;-4.20;99.90;;;;;;5054605;28;20411;-43
2022/12/13 03:33:40;;;;;;;44.20;22.67;;;-4.20;99.90;;;;;;5054728;28;20547;-41
2022/12/13 03:36:07;;;;;;;46.83;22.17;;;-4.20;99.90;;;;;;5036335;28;20412;-42
2022/12/13 03:38:33;;;;;;;41.83;20.27;;;-4.20;99.90;;;;;;5054841;28;20684;-41
2022/12/13 03:41:07;;;;;;;43.60;20.40;;;-4.20;99.90;;;;;;5036819;28;20407;-43
2022/12/13 03:43:33;;;;;;;45.93;20.03;;;-4.20;99.90;;;;;;5054552;28;20454;-42
2022/12/13 03:46:00;;;;;;;36.67;20.73;;;-4.20;99.90;;;;;;5036921;28;20416;-43
2022/12/13 03:48:25;;;;;;;43.47;21.20;;;-4.20;99.90;;;;;;5036484;28;20675;-43
2022/12/13 03:50:53;;;;;;;44.03;18.73;;;-4.20;99.90;;;;;;5036436;28;20455;-45
2022/12/13 03:53:20;;;;;;;40.77;19.63;;;-4.30;99.90;;;;;;5054561;28;20685;-47
2022/12/13 03:55:46;;;;;;;42.20;22.03;;;-4.20;99.90;;;;;;5074848;22;20476;-43
2022/12/13 03:58:11;;;;;;;46.03;21.53;;;-4.20;99.90;;;;;;5094057;28;20448;-41
2022/12/13 04:00:37;;;;;;;45.30;21.87;;;-4.20;99.90;;;;;;5093721;28;20426;-43
2022/12/13 04:03:03;;;;;;;53.33;23.27;;;-4.20;99.90;;;;;;5093770;28;20180;-41
2022/12/13 04:05:29;;;;;;;52.30;23.70;;;-4.20;99.90;;;;;;5093634;28;20179;-42
2022/12/13 04:07:55;;;;;;;49.13;23.00;;;-4.20;99.90;;;;;;5093857;28;20312;-42
2022/12/13 04:10:21;;;;;;;43.83;20.10;;;-4.20;99.90;;;;;;5093521;28;20552;-42
2022/12/13 04:15:30;;;;;;;44.63;20.87;;;-4.20;99.90;;;;;;5093606;28;20631;-43
2022/12/13 04:17:56;;;;;;;46.50;23.80;;;-4.20;99.90;;;;;;5093526;28;20412;-42
2022/12/13 04:20:21;;;;;;;41.77;22.47;;;-4.20;99.90;;;;;;5093339;28;20210;-42
2022/12/13 04:22:47;;;;;;;45.47;21.13;;;-4.20;99.90;;;;;;5093561;28;20180;-43
2022/12/13 04:25:13;;;;;;;37.13;20.73;;;-4.20;99.90;;;;;;5093657;28;20257;-42
2022/12/13 04:27:38;;;;;;;41.30;21.20;;;-4.20;99.90;;;;;;5093569;28;20671;-44
2022/12/13 04:30:05;;;;;;;42.30;20.70;;;-4.20;99.90;;;;;;5092925;28;20202;-44
2022/12/13 04:32:30;;;;;;;42.57;22.03;;;-4.20;99.90;;;;;;5093594;28;20550;-44
2022/12/13 04:34:56;;;;;;;42.60;20.77;;;-4.20;99.90;;;;;;5093447;28;20417;-44
2022/12/13 04:37:22;;;;;;;37.20;19.63;;;-4.20;99.90;;;;;;5093610;28;20262;-43
2022/12/13 04:39:47;;;;;;;42.23;20.57;;;-4.20;99.90;;;;;;5093223;28;20674;-44
2022/12/13 04:42:13;;;;;;;42.57;20.30;;;-4.20;99.90;;;;;;5093207;28;20246;-44
2022/12/13 04:44:39;;;;;;;42.20;21.07;;;-4.20;99.90;;;;;;5093185;28;20257;-44
2022/12/13 04:47:04;;;;;;;43.10;21.67;;;-4.20;99.90;;;;;;5093727;28;20512;-43
2022/12/13 04:49:30;;;;;;;39.40;20.47;;;-4.30;99.90;;;;;;5093046;28;20675;-44
2022/12/13 04:51:56;;;;;;;34.77;16.27;;;-4.30;99.90;;;;;;5093228;28;20182;-44
2022/12/13 04:54:22;;;;;;;37.23;18.10;;;-4.30;99.90;;;;;;5093563;28;20504;-43
2022/12/13 04:56:48;;;;;;;43.80;21.77;;;-4.30;99.90;;;;;;5093240;28;20575;-45
2022/12/13 04:59:14;;;;;;;39.70;19.07;;;-4.30;99.90;;;;;;5093093;28;20225;-42
2022/12/13 05:01:40;;;;;;;46.77;19.50;;;-4.30;99.90;;;;;;5092978;28;20410;-43
2022/12/13 05:04:05;;;;;;;41.57;18.00;;;-4.30;99.90;;;;;;5093021;28;20416;-43
2022/12/13 05:06:31;;;;;;;31.00;14.17;;;-4.30;99.90;;;;;;5093550;28;20523;-43
2022/12/13 05:08:57;;;;;;;41.33;18.57;;;-4.30;99.90;;;;;;5092747;28;20386;-43
2022/12/13 05:11:22;;;;;;;45.83;21.97;;;-4.20;99.90;;;;;;5092878;28;20182;-44
2022/12/13 05:13:48;;;;;;;41.00;20.53;;;-4.30;99.90;;;;;;5092965;28;20171;-42
2022/12/13 05:16:14;;;;;;;45.43;20.60;;;-4.30;99.90;;;;;;5092884;28;20698;-43
2022/12/13 05:18:40;;;;;;;44.20;20.80;;;-4.30;99.90;;;;;;5074706;28;20211;-42
2022/12/13 05:21:10;;;;;;;32.43;16.87;;;-4.40;99.90;;;;;;5093096;28;20478;-44
2022/12/13 05:23:36;;;;;;;42.70;19.60;;;-4.40;99.90;;;;;;5093108;28;20422;-43
2022/12/13 05:26:02;;;;;;;42.10;19.53;;;-4.40;99.90;;;;;;5092839;28;20464;-42
2022/12/13 05:28:29;;;;;;;41.00;20.10;;;-4.50;99.90;;;;;;5092648;28;20421;-44
2022/12/13 05:30:57;;;;;;;36.07;16.50;;;-4.50;99.90;;;;;;5092590;28;20490;-44
2022/12/13 05:33:23;;;;;;;44.03;21.23;;;-4.50;99.90;;;;;;5093059;28;20791;-43
2022/12/13 05:35:49;;;;;;;48.57;23.03;;;-4.50;99.90;;;;;;5092962;28;20414;-43
2022/12/13 05:38:15;;;;;;;41.57;20.30;;;-4.50;99.90;;;;;;5092919;28;21031;-45
2022/12/13 05:40:40;;;;;;;46.30;24.23;;;-4.50;99.90;;;;;;5095529;28;20194;-45
2022/12/13 05:43:06;;;;;;;49.17;23.27;;;-4.50;99.90;;;;;;5096438;28;20550;-44
2022/12/13 05:45:32;;;;;;;45.90;20.97;;;-4.50;99.90;;;;;;5096662;28;20636;-43
2022/12/13 05:47:58;;;;;;;43.17;20.80;;;-4.50;99.90;;;;;;5096520;28;20423;-43
2022/12/13 05:50:24;;;;;;;41.97;19.60;;;-4.50;99.90;;;;;;5078486;28;20215;-43
2022/12/13 05:52:50;;;;;;;48.13;23.87;;;-4.40;99.90;;;;;;5096663;28;20630;-42
2022/12/13 05:55:16;;;;;;;29.97;14.30;;;-4.40;99.90;;;;;;5096148;28;20416;-42
2022/12/13 05:57:41;;;;;;;47.30;22.00;;;-4.40;99.90;;;;;;5096069;28;20195;-43
2022/12/13 06:00:09;;;;;;;40.67;18.37;;;-4.40;99.90;;;;;;5096266;28;20237;-44
2022/12/13 06:02:39;;;;;;;37.80;17.17;;;-4.30;99.90;;;;;;5096037;28;20181;-45
2022/12/13 06:05:05;;;;;;;46.53;21.60;;;-4.30;99.90;;;;;;5096784;28;20401;-44
2022/12/13 06:07:31;;;;;;;34.47;16.57;;;-4.30;99.90;;;;;;5098425;28;20422;-43
2022/12/13 06:09:57;;;;;;;44.37;19.93;;;-4.30;99.90;;;;;;5098422;28;20846;-43
2022/12/13 06:12:23;;;;;;;40.47;18.07;;;-4.30;99.90;;;;;;5096043;28;20193;-43
2022/12/13 06:14:49;;;;;;;33.80;16.93;;;-4.20;99.90;;;;;;5095950;28;20914;-44
2022/12/13 06:17:15;;;;;;;47.17;21.27;;;-4.20;99.90;;;;;;5096124;28;20187;-43
2022/12/13 06:19:40;;;;;;;49.53;23.00;;;-4.20;99.90;;;;;;5095975;28;20603;-43
2022/12/13 06:22:06;;;;;;;45.33;21.23;;;-4.20;99.90;;;;;;5097997;28;20179;-47
2022/12/13 06:24:32;;;;;;;46.20;22.07;;;-4.20;99.90;;;;;;5100017;28;20177;-48
2022/12/13 06:26:59;;;;;;;25.27;12.50;;;-4.20;99.90;;;;;;5081380;28;20566;-48
2022/12/13 06:29:25;;;;;;;44.60;21.10;;;-4.20;99.90;;;;;;5099522;28;20239;-48
2022/12/13 06:31:55;;;;;;;46.63;21.90;;;-4.20;99.90;;;;;;5099510;28;20426;-48
2022/12/13 06:34:21;;;;;;;45.30;22.53;;;-4.20;99.90;;;;;;5099985;28;20429;-49
2022/12/13 06:36:46;;;;;;;23.50;11.47;;;-4.20;99.90;;;;;;5097866;28;20561;-48
2022/12/13 06:39:14;;;;;;;35.93;15.90;;;-4.20;99.90;;;;;;5097576;28;20208;-48
2022/12/13 06:41:40;;;;;;;31.50;13.47;;;-4.10;99.90;;;;;;5097932;28;20187;-48
2022/12/13 06:44:06;;;;;;;47.03;21.53;;;-4.10;99.90;;;;;;5102979;28;20415;-47
2022/12/13 06:46:31;;;;;;;43.47;22.27;;;-4.10;99.90;;;;;;5103893;28;20176;-48
2022/12/13 06:48:57;;;;;;;44.23;20.20;;;-4.10;99.90;;;;;;5104541;28;20215;-47
2022/12/13 06:51:23;;;;;;;53.13;22.17;;;-4.10;99.90;;;;;;5104552;28;20177;-46
2022/12/13 06:53:48;;;;;;;39.17;19.23;;;-4.10;99.90;;;;;;5103909;28;20670;-47
2022/12/13 06:56:14;;;;;;;31.57;14.77;;;-4.10;99.90;;;;;;5103348;28;20196;-47
2022/12/13 06:58:41;;;;;;;37.70;19.67;;;-4.20;99.90;;;;;;5104458;28;20195;-47
2022/12/13 07:01:13;;;;;;;40.07;19.67;;;-4.20;99.90;;;;;;5103622;28;20196;-47
2022/12/13 07:03:39;;;;;;;32.93;15.93;;;-4.20;99.90;;;;;;5103286;28;20387;-47
2022/12/13 07:06:16;;;;;;;37.60;15.20;;;-4.20;99.90;;;;;;5104151;28;20452;-46
2022/12/13 07:08:44;;;;;;;40.93;18.83;;;-4.20;99.90;;;;;;5104111;28;20432;-47
2022/12/13 07:11:14;;;;;;;38.07;18.40;;;-4.20;99.90;;;;;;5103906;28;20434;-47
2022/12/13 07:13:40;;;;;;;47.37;21.87;;;-4.20;99.90;;;;;;5103149;28;20409;-46
2022/12/13 07:16:06;;;;;;;39.27;19.17;;;-4.30;99.90;;;;;;5103782;28;20416;-48
2022/12/13 07:18:32;;;;;;;46.07;22.10;;;-4.30;99.90;;;;;;5102920;28;20188;-46
2022/12/13 07:20:57;;;;;;;37.47;18.83;;;-4.30;99.90;;;;;;5102982;28;20229;-47
2022/12/13 07:23:23;;;;;;;45.13;20.23;;;-4.30;99.90;;;;;;5103169;28;20419;-48
2022/12/13 07:25:53;;;;;;;51.17;23.83;;;-4.30;99.90;;;;;;5102482;28;20183;-46
2022/12/13 07:28:19;;;;;;;49.77;22.50;;;-4.30;99.90;;;;;;5102123;28;20197;-47
2022/12/13 07:30:45;;;;;;;57.07;28.10;;;-4.30;99.90;;;;;;5102051;28;20450;-47
2022/12/13 07:33:12;;;;;;;51.37;23.70;;;-4.40;99.90;;;;;;5102213;28;20421;-48
2022/12/13 07:35:37;;;;;;;54.43;25.30;;;-4.40;99.90;;;;;;5083897;28;20460;-47
2022/12/13 07:38:08;;;;;;;50.40;22.33;;;-4.40;99.90;;;;;;5084156;28;20417;-47
2022/12/13 07:40:34;;;;;;;54.33;22.10;;;-4.50;99.90;;;;;;5101531;28;20235;-47
2022/12/13 07:43:00;;;;;;;53.03;24.50;;;-4.50;99.90;;;;;;5101736;28;20482;-47
2022/12/13 07:45:25;;;;;;;49.00;21.63;;;-4.50;99.90;;;;;;5101041;28;20435;-48
2022/12/13 07:47:51;;;;;;;52.93;24.00;;;-4.50;99.90;;;;;;5102186;28;20183;-48
2022/12/13 07:50:19;;;;;;;50.77;23.57;;;-4.50;99.90;;;;;;5094893;28;20204;-47
2022/12/13 07:52:46;;;;;;;53.40;22.00;;;-4.50;99.90;;;;;;5094138;28;20184;-46
2022/12/13 07:55:12;;;;;;;45.63;22.60;;;-4.50;99.90;;;;;;5094018;28;20498;-45
2022/12/13 07:57:37;;;;;;;41.30;20.40;;;-4.50;99.90;;;;;;5093793;28;20456;-48
2022/12/13 08:00:04;;;;;;;45.30;21.33;;;-4.50;99.90;;;;;;5093839;28;20598;-45
2022/12/13 08:02:29;;;;;;;45.20;20.27;;;-4.50;99.90;;;;;;5075726;28;20207;-48
2022/12/13 08:04:55;;;;;;;42.80;20.50;;;-4.50;99.90;;;;;;5093592;28;20457;-47
2022/12/13 08:07:20;;;;;;;42.60;20.30;;;-4.50;99.90;;;;;;5093703;28;20185;-47
2022/12/13 08:09:46;;;;;;;47.73;20.43;;;-4.50;99.90;;;;;;5093672;28;20208;-47
2022/12/13 08:12:11;;;;;;;33.93;16.87;;;-4.40;99.90;;;;;;5093770;28;20586;-47
2022/12/13 08:14:37;;;;;;;41.77;21.23;;;-4.40;99.90;;;;;;5094264;28;20653;-46
2022/12/13 08:17:02;;;;;;;36.93;19.93;;;-4.40;99.90;;;;;;5093620;28;20207;-47
2022/12/13 08:19:28;;;;;;;33.10;14.80;;;-4.30;99.90;;;;;;5075432;28;20251;-45
2022/12/13 08:21:55;;;;;;;37.23;18.60;;;-4.30;99.90;;;;;;5093851;28;20227;-48
2022/12/13 08:24:22;;;;;;;39.53;19.13;;;-4.30;99.90;;;;;;5093841;28;20188;-46
2022/12/13 08:26:48;;;;;;;32.90;18.13;;;-4.20;99.90;;;;;;5096247;28;20431;-48
2022/12/13 08:29:14;;;;;;;39.27;18.87;;;-4.20;99.90;;;;;;5093708;28;20605;-48
2022/12/13 08:31:39;;;;;;;43.37;20.23;;;-4.20;99.90;;;;;;5099900;28;20177;-47
2022/12/13 08:34:05;;;;;;;33.07;17.20;;;-4.20;99.90;;;;;;5102839;28;20494;-47
2022/12/13 08:36:31;;;;;;;39.57;19.23;;;-4.10;99.90;;;;;;5102476;28;20551;-48
2022/12/13 08:38:57;;;;;;;37.40;16.20;;;-4.00;99.90;;;;;;5102204;28;20192;-47
2022/12/13 08:41:23;;;;;;;32.67;17.33;;;-4.00;99.90;;;;;;5103148;28;20211;-48
2022/12/13 08:43:49;;;;;;;34.27;16.80;;;-4.00;99.90;;;;;;5103157;28;20411;-47
2022/12/13 08:46:15;;;;;;;38.93;18.50;;;-4.00;99.90;;;;;;5102747;28;20184;-48
2022/12/13 08:48:41;;;;;;;32.80;16.00;;;-3.90;99.90;;;;;;5102833;28;20212;-48
2022/12/13 08:51:12;;;;;;;36.87;17.93;;;-3.90;99.90;;;;;;5102647;28;20202;-47
2022/12/13 08:53:38;;;;;;;35.57;18.00;;;-3.90;99.90;;;;;;5103114;28;20160;-47
2022/12/13 08:56:09;;;;;;;31.13;16.13;;;-3.90;99.90;;;;;;5103504;28;20451;-48
2022/12/13 08:58:36;;;;;;;35.63;17.50;;;-3.90;99.90;;;;;;5103171;28;20783;-48
2022/12/13 09:01:07;;;;;;;36.20;15.10;;;-3.80;99.90;;;;;;5101734;28;20420;-48
2022/12/13 09:03:33;;;;;;;37.17;17.53;;;-3.80;99.90;;;;;;5101496;28;20935;-48
2022/12/13 09:06:10;;;;;;;37.23;18.10;;;-3.70;99.90;;;;;;5101510;28;20454;-47
2022/12/13 09:08:36;;;;;;;35.50;18.07;;;-3.70;99.90;;;;;;5101900;28;20300;-48
2022/12/13 09:11:03;;;;;;;29.00;15.43;;;-3.70;99.90;;;;;;5084095;28;20470;-48
2022/12/13 09:13:31;;;;;;;33.17;16.33;;;-3.60;99.90;;;;;;5101056;28;20782;-48
2022/12/13 09:15:58;;;;;;;32.97;14.77;;;-3.60;99.90;;;;;;5101116;28;20415;-48
2022/12/13 09:18:24;;;;;;;38.80;18.20;;;-3.60;99.90;;;;;;5103343;28;20474;-48
2022/12/13 09:20:49;;;;;;;33.37;15.93;;;-3.50;99.90;;;;;;5104886;28;20462;-48
2022/12/13 09:23:15;;;;;;;38.27;18.70;;;-3.40;99.90;;;;;;5103126;28;20268;-48
2022/12/13 09:25:41;;;;;;;33.20;16.67;;;-3.40;99.90;;;;;;5103402;28;20234;-47
2022/12/13 09:28:08;;;;;;;38.70;16.87;;;-3.30;99.90;;;;;;5105121;28;20640;-48
2022/12/13 09:30:37;;;;;;;36.20;15.67;;;-3.20;99.90;;;;;;5085810;28;20250;-49
2022/12/13 09:33:03;;;;;;;41.13;18.33;;;-3.20;99.90;;;;;;5102443;28;20423;-48
2022/12/13 09:35:29;;;;;;;34.30;17.70;;;-3.10;99.90;;;;;;5100638;28;20415;-46
2022/12/13 09:37:55;;;;;;;26.67;13.43;;;-3.00;99.90;;;;;;5100427;28;20187;-48
2022/12/13 09:40:26;;;;;;;35.80;17.77;;;-2.90;99.90;;;;;;5099515;28;20514;-48
2022/12/13 09:42:56;;;;;;;42.93;20.77;;;-2.90;99.90;;;;;;5099619;28;20175;-48
2022/12/13 09:45:22;;;;;;;31.87;16.77;;;-2.80;99.90;;;;;;5081214;28;20451;-48
2022/12/13 09:47:50;;;;;;;33.43;16.37;;;-2.80;99.90;;;;;;5098517;28;20413;-48
2022/12/13 09:50:31;;;;;;;31.13;14.33;;;-2.70;99.90;;;;;;5097846;28;20463;-46
2022/12/13 09:52:58;;;;;;;21.87;11.73;;;-2.70;99.90;;;;;;5097733;28;20757;-49
2022/12/13 09:55:31;;;;;;;23.80;13.13;;;-2.60;99.90;;;;;;5097332;28;20417;-47
2022/12/13 09:57:59;;;;;;;31.30;16.17;;;-2.60;99.90;;;;;;5097465;28;20472;-49
2022/12/13 10:00:33;;;;;;;25.83;12.73;;;-2.50;99.90;;;;;;5113478;22;20531;-39
2022/12/13 10:02:59;;;;;;;28.07;13.57;;;-2.50;99.90;;;;;;5096329;28;20412;-39
2022/12/13 10:05:34;;;;;;;34.80;15.87;;;-2.40;99.90;;;;;;5096530;28;20759;-38
2022/12/13 10:08:15;;;;;;;30.73;15.10;;;-2.40;99.90;;;;;;5077767;28;20416;-42
2022/12/13 10:10:42;;;;;;;28.20;15.30;;;-2.30;99.90;;;;;;5075972;28;20478;-41
2022/12/13 10:13:45;;;;;;;30.17;13.97;;;-2.30;99.90;;;;;;5075935;28;20792;-43
2022/12/13 10:16:34;;;;;;;39.03;16.60;;;-2.20;99.90;;;;;;5075871;28;20879;-39
2022/12/13 10:19:22;;;;;;;15.27;8.77;;;-2.20;99.90;;;;;;5075410;28;20428;-42
2022/12/13 10:21:49;;;;;;;30.77;15.63;;;-2.10;99.90;;;;;;5076043;28;20730;-40
2022/12/13 10:24:20;;;;;;;30.23;15.67;;;-2.20;99.90;;;;;;5075493;28;20465;-41
2022/12/13 10:26:46;;;;;;;30.37;12.17;;;-2.10;99.90;;;;;;5075629;28;20390;-41
2022/12/13 10:29:11;;;;;;;25.10;12.77;;;-2.10;99.90;;;;;;5074712;28;20469;-42
2022/12/13 10:31:46;;;;;;;29.37;14.73;;;-2.00;99.90;;;;;;5057332;28;20180;-41
2022/12/13 10:34:26;;;;;;;23.53;12.17;;;-2.00;99.90;;;;;;5076062;28;20163;-47
2022/12/13 10:36:52;;;;;;;20.60;11.73;;;-2.00;99.90;;;;;;5076621;28;20448;-46
2022/12/13 10:39:40;;;;;;;34.97;17.73;;;-1.90;99.90;;;;;;5076530;28;20952;-47
2022/12/13 10:42:12;;;;;;;31.47;15.17;;;-1.90;99.90;;;;;;5076402;28;20170;-46
2022/12/13 10:44:38;;;;;;;38.17;16.97;;;-1.90;99.90;;;;;;5058506;28;20394;-45
2022/12/13 10:47:23;;;;;;;35.43;16.87;;;-1.90;99.90;;;;;;5076624;28;20449;-48
2022/12/13 10:49:58;;;;;;;36.00;17.47;;;-1.80;99.90;;;;;;5057880;28;20203;-45
2022/12/13 10:52:33;;;;;;;37.17;18.43;;;-1.80;99.90;;;;;;5075774;28;20423;-46
2022/12/13 10:55:05;;;;;;;36.70;17.33;;;-1.70;99.90;;;;;;5075733;28;20416;-44
2022/12/13 10:57:31;;;;;;;35.10;17.70;;;-1.70;99.90;;;;;;5075907;28;20428;-44
2022/12/13 10:59:57;;;;;;;28.87;13.73;;;-1.60;99.90;;;;;;5075379;28;20502;-45
2022/12/13 11:02:31;;;;;;;33.70;17.23;;;-1.60;99.90;;;;;;5075756;28;20477;-46
2022/12/13 11:04:58;;;;;;;35.77;19.03;;;-1.60;99.90;;;;;;5075925;28;20262;-46
2022/12/13 11:11:32;;;;;;;27.50;14.20;;;-1.60;99.90;;;;;;5076393;28;20818;-46
2022/12/13 11:14:02;;;;;;;34.00;18.30;;;-1.50;99.90;;;;;;5077780;28;20739;-47
2022/12/13 11:16:38;;;;;;;30.63;15.03;;;-1.50;99.90;;;;;;5077140;28;20405;-47
2022/12/13 11:19:18;;;;;;;35.40;17.93;;;-1.60;99.90;;;;;;5077695;28;20421;-44
2022/12/13 11:21:47;;;;;;;33.77;15.77;;;-1.60;99.90;;;;;;5075832;28;20853;-47
2022/12/13 11:24:23;;;;;;;28.43;13.67;;;-1.60;99.90;;;;;;5074811;28;20491;-46
2022/12/13 11:27:06;;;;;;;17.40;8.13;;;-1.60;99.90;;;;;;5074971;28;20393;-46
2022/12/13 11:30:07;;;;;;;26.43;13.23;;;-1.50;99.90;;;;;;5059466;28;20450;-46
2022/12/13 11:32:55;;;;;;;27.13;14.97;;;-1.50;99.90;;;;;;5074773;28;20398;-48
2022/12/13 11:35:32;;;;;;;25.60;11.67;;;-1.40;99.90;;;;;;5074817;28;20900;-45
2022/12/13 11:38:34;;;;;;;33.17;17.53;;;-1.50;99.90;;;;;;5074716;28;20390;-47
2022/12/13 11:41:13;;;;;;;33.20;17.37;;;-1.40;99.90;;;;;;5073782;28;20900;-46
2022/12/13 11:43:49;;;;;;;35.63;16.77;;;-1.40;99.90;;;;;;5074434;28;20752;-46
2022/12/13 11:46:49;;;;;;;28.03;14.53;;;-1.40;99.90;;;;;;5074575;28;20394;-47
2022/12/13 11:49:17;;;;;;;29.97;15.03;;;-1.30;99.90;;;;;;5074468;28;20461;-48
2022/12/13 11:51:52;;;;;;;34.00;17.57;;;-1.20;99.90;;;;;;5075652;28;20410;-47
2022/12/13 11:54:48;;;;;;;30.73;15.03;;;-1.10;99.90;;;;;;5075925;28;20443;-47
2022/12/13 11:57:41;;;;;;;30.90;17.23;;;-1.00;99.90;;;;;;5075712;28;20401;-49
2022/12/13 12:00:26;;;;;;;36.33;17.07;;;-0.90;99.90;;;;;;5067493;28;20469;-46
2022/12/13 12:02:58;;;;;;;34.43;16.63;;;-0.90;99.90;;;;;;5075502;28;20398;-46
2022/12/13 12:05:31;;;;;;;34.00;16.53;;;-0.80;99.90;;;;;;5057017;28;20422;-47
2022/12/13 12:08:08;;;;;;;27.33;14.37;;;-0.80;99.90;;;;;;5074427;28;20818;-47
2022/12/13 12:10:43;;;;;;;32.73;16.47;;;-0.80;99.90;;;;;;5074624;28;20453;-46
2022/12/13 12:13:09;;;;;;;21.77;10.07;;;-0.70;99.90;;;;;;5075676;28;20453;-49
2022/12/13 12:15:57;;;;;;;34.87;16.77;;;-0.70;99.90;;;;;;5074332;28;20449;-48
2022/12/13 12:18:22;;;;;;;28.83;15.03;;;-0.70;99.90;;;;;;5074337;28;20160;-48
2022/12/13 12:20:53;;;;;;;30.47;15.57;;;-0.60;99.90;;;;;;5074296;28;20472;-48
2022/12/13 12:23:28;;;;;;;32.43;16.70;;;-0.70;99.90;;;;;;5074260;28;20179;-48
2022/12/13 12:26:12;;;;;;;32.83;16.37;;;-0.70;99.90;;;;;;5074627;28;20397;-47
2022/12/13 12:28:47;;;;;;;29.97;16.33;;;-0.70;99.90;;;;;;5074040;28;20786;-46
2022/12/13 12:31:38;;;;;;;32.33;16.53;;;-0.70;99.90;;;;;;5056424;28;20453;-47
2022/12/13 12:34:43;;;;;;;30.43;16.47;;;-0.80;99.90;;;;;;5036272;28;20419;-48
2022/12/13 12:37:32;;;;;;;23.50;12.97;;;-0.80;99.90;;;;;;5074273;28;20391;-47
2022/12/13 12:40:33;;;;;;;28.87;16.57;;;-0.80;99.90;;;;;;5073882;28;20448;-46
2022/12/13 12:43:14;;;;;;;33.67;16.67;;;-0.90;99.90;;;;;;5073744;28;20411;-47
2022/12/13 12:46:05;;;;;;;27.23;14.20;;;-0.90;99.90;;;;;;5074928;28;20989;-46
2022/12/13 12:48:48;;;;;;;31.73;16.60;;;-0.90;99.90;;;;;;5075702;28;20387;-47
2022/12/13 12:51:27;;;;;;;30.13;16.43;;;-0.80;99.90;;;;;;5058579;28;20456;-46
2022/12/13 12:54:27;;;;;;;31.97;16.33;;;-0.80;99.90;;;;;;5079694;28;20392;-47